Flight Track Log - Related Links

Times and Time Zones

All times are in EDT time to prevent confusion due to time zone crossing. See the AWI3698 flight status page for this flight to view local times or setup timezone preferences in your user account.

Time Position Orientation Groundspeed Altitude Reporting Facility
EDT Latitude Longitude Course Direction KTS MPH feet Rate Location/Type
Tue 09:49:00 AM 39.8833 -75.2167 311° West 158 182 900  Level Philadelphia TRACON
Tue 09:50:30 AM 39.9167 -75.1333 62° Northeast 219 252 3,900 2,083 Climbing Philadelphia TRACON
Tue 09:51:00 AM 40.0769 -75.4268 323° Northwest  Level FlightAware Approximate
Tue 09:51:24 AM 39.9333 -75.0667 72° East 263 303 5,900  Level Philadelphia TRACON
Tue 09:52:00 AM 40.1484 -75.4984 323° Northwest  Level FlightAware Approximate
Tue 09:52:24 AM 40.0000 -75.1000 339° North 281 323 8,500  Level Philadelphia TRACON
Tue 09:53:00 AM 40.2222 -75.5583 311° West  Level FlightAware Approximate
Tue 09:53:18 AM 40.0500 -75.1833 308° West 301 346 10,000  Level Philadelphia TRACON
Tue 09:54:00 AM 40.2815 -75.6472 311° West  Level FlightAware Approximate
Tue 09:54:18 AM 40.1000 -75.2833 303° West 344 396 10,000  Level Philadelphia TRACON
Tue 09:55:29 AM 40.1475 -75.4064 297° West 371 427 12,300 1,374 Climbing New York Center
Tue 09:56:29 AM 40.1936 -75.5072 301° West 371 427 13,000 1,240 Climbing New York Center
Tue 09:57:30 AM 40.2697 -75.6294 309° West 387 445 14,800 1,700 Climbing New York Center
Tue 09:58:29 AM 40.3383 -75.7378 310° West 393 452 16,400 1,311 Climbing New York Center
Tue 09:59:29 AM 40.4050 -75.8325 313° West 393 452 17,400 850 Climbing New York Center
Tue 10:00:29 AM 40.4553 -75.9753 295° West 395 455 18,100 744 Climbing New York Center
Tue 10:01:30 AM 40.4761 -76.1106 281° West 400 460 18,900 908 Climbing New York Center
Tue 10:02:28 AM 40.4967 -76.2569 281° West 410 472 19,900 1,008 Climbing New York Center
Tue 10:03:29 AM 40.5211 -76.4036 282° West 415 478 20,900 992 Climbing New York Center
Tue 10:04:29 AM 40.5431 -76.5500 281° West 415 478 21,900 1,008 Climbing New York Center
Tue 10:05:28 AM 40.5906 -76.6853 295° West 409 471 22,900 1,050 Climbing New York Center
Tue 10:06:29 AM 40.6467 -76.8133 300° West 401 461 24,000 1,033 Climbing New York Center
Tue 10:07:30 AM 40.7050 -76.9361 302° West 401 461 25,000 992 Climbing New York Center
Tue 10:08:30 AM 40.7608 -77.0617 300° West 406 467 26,000 504 Climbing New York Center
Tue 10:09:29 AM 40.8186 -77.1906 301° West 406 467 26,000  Level New York Center
Tue 10:10:30 AM 40.8800 -77.3253 301° West 416 479 26,000  Level New York Center
Tue 10:11:28 AM 40.9703 -77.4247 320° Northwest 411 473 26,000  Level New York Center
Tue 10:12:28 AM 41.0831 -77.4936 335° Northwest 421 484 26,000  Level New York Center
Tue 10:14:45 AM 41.3536 -77.6564 336° Northwest 440 506 26,000  Level Cleveland Center
Tue 10:15:45 AM 41.4681 -77.7289 335° Northwest 440 506 26,000  Level Cleveland Center
Tue 10:16:45 AM 41.5822 -77.7958 336° Northwest 445 512 26,000 -400 Level Cleveland Center
Tue 10:17:45 AM 41.6944 -77.8661 335° Northwest 445 512 25,200 -1,150 Descending Cleveland Center
Tue 10:18:45 AM 41.8064 -77.9367 335° Northwest 445 512 23,700 -1,500 Descending Cleveland Center
Tue 10:19:45 AM 41.9208 -78.0072 335° Northwest 445 512 22,200 -1,550 Descending Cleveland Center
Tue 10:20:45 AM 42.0167 -78.0986 325° Northwest 445 512 20,600 -1,400 Descending Cleveland Center
Tue 10:21:45 AM 42.0850 -78.1769 320° Northwest 428 493 19,400 -1,300 Descending Cleveland Center
Tue 10:22:45 AM 42.1875 -78.2964 319° Northwest 414 476 18,000 -1,750 Descending Cleveland Center
Tue 10:23:45 AM 42.2686 -78.3944 318° Northwest 397 457 15,900 -2,300 Descending Cleveland Center
Tue 10:24:45 AM 42.3453 -78.4847 319° Northwest 385 443 13,400 -2,400 Descending Cleveland Center
Tue 10:25:45 AM 42.4378 -78.5208 344° North 351 404 11,100 -1,600 Descending Cleveland Center
Tue 10:26:45 AM 42.5278 -78.5461 348° North 336 387 10,200 -1,100 Descending Cleveland Center
Tue 10:27:45 AM 42.6031 -78.5636 350° North 310 357 8,900 -1,300 Descending Cleveland Center
Tue 10:28:45 AM 42.6822 -78.5667 358° North 291 335 7,600 -1,450 Descending Cleveland Center
Tue 10:29:45 AM 42.7700 -78.5694 359° North 286 329 6,000 -1,500 Descending Cleveland Center
Tue 10:30:45 AM 42.8450 -78.5728 358° North 281 323 4,600 -1,400 Descending Cleveland Center

Login

Don't have an account? Register now (free) for customized features, flight alerts, and more!